createdAt,value
2023-02-02T00:01:20.452Z,6.17
2023-02-02T00:03:50.716Z,6.06
2023-02-02T00:06:18.807Z,6.08
2023-02-02T00:08:46.685Z,6.11
2023-02-02T00:11:14.570Z,6.14
2023-02-02T00:13:43.592Z,6.11
2023-02-02T00:16:42.990Z,6.02
2023-02-02T00:19:13.531Z,6.18
2023-02-02T00:21:41.716Z,6.16
2023-02-02T00:24:11.033Z,6.18
2023-02-02T00:26:39.791Z,6.22
2023-02-02T00:29:10.804Z,6.06
2023-02-02T00:31:38.425Z,6.17
2023-02-02T00:34:06.012Z,6.17
2023-02-02T00:36:33.689Z,6.14
2023-02-02T00:39:01.415Z,6.13
2023-02-02T00:41:29.030Z,6.15
2023-02-02T00:44:14.167Z,6.10
2023-02-02T00:46:43.537Z,6.14
2023-02-02T00:49:11.374Z,6.01
2023-02-02T00:51:39.005Z,6.08
2023-02-02T00:54:07.097Z,6.18
2023-02-02T00:56:34.714Z,6.08
2023-02-02T00:59:02.291Z,6.12
2023-02-02T01:01:30.046Z,6.02
2023-02-02T01:03:59.120Z,6.15
2023-02-02T01:06:26.643Z,5.98
2023-02-02T01:08:54.681Z,6.23
2023-02-02T01:11:22.441Z,6.01
2023-02-02T01:13:50.027Z,5.95
2023-02-02T01:16:17.672Z,6.08
2023-02-02T01:18:45.386Z,6.11
2023-02-02T01:21:14.406Z,6.14
2023-02-02T01:23:41.967Z,6.17
2023-02-02T01:26:10.994Z,6.12
2023-02-02T01:28:38.898Z,6.09
2023-02-02T01:31:08.388Z,6.14
2023-02-02T01:33:36.191Z,6.04
2023-02-02T01:36:06.421Z,6.18
2023-02-02T01:38:35.806Z,6.08
2023-02-02T01:41:04.454Z,6.19
2023-02-02T01:43:52.667Z,6.11
2023-02-02T01:46:21.277Z,6.20
2023-02-02T01:48:50.706Z,6.15
2023-02-02T01:51:20.528Z,6.17
2023-02-02T01:53:50.852Z,6.03
2023-02-02T01:56:20.610Z,6.01
2023-02-02T01:58:48.184Z,6.07
2023-02-02T02:01:16.006Z,6.18
2023-02-02T02:03:43.796Z,6.21
2023-02-02T02:06:14.358Z,6.20
2023-02-02T02:08:47.225Z,6.17
2023-02-02T02:11:16.437Z,6.06
2023-02-02T02:14:01.581Z,6.25
2023-02-02T02:16:37.964Z,6.19
2023-02-02T02:19:14.956Z,5.92
2023-02-02T02:22:12.876Z,6.14
2023-02-02T02:25:42.462Z,6.07
2023-02-02T02:28:27.121Z,6.20
2023-02-02T02:31:33.211Z,6.31
2023-02-02T02:34:05.527Z,6.18
2023-02-02T02:36:40.656Z,6.22
2023-02-02T02:39:13.904Z,6.24
2023-02-02T02:41:45.088Z,6.24
2023-02-02T02:44:15.508Z,6.29
2023-02-02T02:46:43.415Z,6.24
2023-02-02T02:49:14.024Z,6.15
2023-02-02T02:51:47.571Z,6.23
2023-02-02T02:54:17.244Z,6.24
2023-02-02T02:56:59.643Z,6.25
2023-02-02T02:59:35.592Z,6.33
2023-02-02T03:02:16.896Z,6.27
2023-02-02T03:04:52.772Z,6.30
2023-02-02T03:07:25.199Z,6.36
2023-02-02T03:09:53.421Z,6.31
2023-02-02T03:12:20.986Z,6.27
2023-02-02T03:14:48.631Z,6.34
2023-02-02T03:17:16.217Z,6.33
2023-02-02T03:19:43.765Z,6.29
2023-02-02T03:22:12.745Z,6.20
2023-02-02T03:24:40.455Z,6.22
2023-02-02T03:27:08.063Z,6.19
2023-02-02T03:29:35.692Z,6.26
2023-02-02T03:32:03.234Z,6.22
2023-02-02T03:34:30.946Z,6.18
2023-02-02T03:36:58.533Z,6.18
2023-02-02T03:39:27.453Z,6.18
2023-02-02T03:41:55.106Z,6.18
2023-02-02T03:44:22.792Z,6.14
2023-02-02T03:46:50.386Z,6.03
2023-02-02T03:49:18.018Z,6.20
2023-02-02T03:51:45.671Z,6.20
2023-02-02T03:54:13.555Z,6.18
2023-02-02T03:56:42.469Z,6.20
2023-02-02T03:59:10.011Z,6.19
2023-02-02T04:01:37.698Z,6.18
2023-02-02T04:04:05.325Z,6.18
2023-02-02T04:06:32.999Z,6.28
2023-02-02T04:09:00.647Z,6.14
2023-02-02T04:11:28.174Z,6.16
2023-02-02T04:13:57.116Z,6.18
2023-02-02T04:16:24.768Z,6.28
2023-02-02T04:18:52.349Z,6.25
2023-02-02T04:21:19.962Z,6.20
2023-02-02T04:23:47.493Z,6.16
2023-02-02T04:26:15.208Z,6.13
2023-02-02T04:28:42.822Z,6.11
2023-02-02T04:31:12.003Z,6.12
2023-02-02T04:33:39.707Z,6.28
2023-02-02T04:36:07.937Z,6.35
2023-02-02T04:38:35.706Z,6.31
2023-02-02T04:41:07.470Z,6.31
2023-02-02T04:43:35.138Z,6.33
2023-02-02T04:46:03.116Z,6.28
2023-02-02T04:48:32.332Z,6.32
2023-02-02T04:51:01.269Z,6.29
2023-02-02T04:53:29.375Z,6.29
2023-02-02T04:55:57.221Z,6.37
2023-02-02T04:58:24.981Z,6.36
2023-02-02T05:00:52.688Z,6.30
2023-02-02T05:03:20.284Z,6.23
2023-02-02T05:05:49.371Z,6.24
2023-02-02T05:08:16.944Z,6.28
2023-02-02T05:10:44.917Z,6.37
2023-02-02T05:13:12.530Z,6.27
2023-02-02T05:15:40.093Z,6.34
2023-02-02T05:18:07.807Z,6.26
2023-02-02T05:20:35.384Z,6.34
2023-02-02T05:23:04.269Z,6.24
2023-02-02T05:25:31.885Z,6.29
2023-02-02T05:27:59.792Z,6.14
2023-02-02T05:30:27.590Z,6.24
2023-02-02T05:32:55.169Z,6.28
2023-02-02T05:35:23.060Z,6.31
2023-02-02T05:37:53.441Z,6.21
2023-02-02T05:40:23.042Z,6.22
2023-02-02T05:42:50.694Z,6.20
2023-02-02T05:45:21.340Z,6.24
2023-02-02T05:47:49.019Z,6.25
2023-02-02T05:50:17.365Z,6.32
2023-02-02T05:52:46.172Z,6.31
2023-02-02T05:55:16.371Z,6.30
2023-02-02T05:57:45.457Z,6.29
2023-02-02T06:00:14.046Z,6.18
2023-02-02T06:02:41.645Z,6.28
2023-02-02T06:05:09.741Z,6.20
2023-02-02T06:07:37.403Z,6.29
2023-02-02T06:10:05.725Z,6.33
2023-02-02T06:12:33.330Z,6.28
2023-02-02T06:15:02.314Z,6.21
2023-02-02T06:17:29.860Z,6.23
2023-02-02T06:19:57.527Z,6.26
2023-02-02T06:22:25.199Z,6.19
2023-02-02T06:24:53.321Z,6.10
2023-02-02T06:27:21.223Z,6.04
2023-02-02T06:29:48.995Z,6.22
2023-02-02T06:32:17.947Z,6.23
2023-02-02T06:34:45.531Z,6.12
2023-02-02T06:37:13.068Z,6.05
2023-02-02T06:39:40.585Z,6.19
2023-02-02T06:42:20.348Z,6.20
2023-02-02T06:44:48.728Z,6.22
2023-02-02T06:47:17.673Z,6.22
2023-02-02T06:49:45.192Z,6.19
2023-02-02T06:52:12.827Z,6.19
2023-02-02T06:54:40.404Z,6.34
2023-02-02T06:57:09.324Z,6.30
2023-02-02T06:59:36.967Z,6.32
2023-02-02T07:02:04.755Z,6.24
2023-02-02T07:04:33.756Z,6.37
2023-02-02T07:07:01.342Z,6.35
2023-02-02T07:09:28.903Z,6.37
2023-02-02T07:11:56.893Z,6.44
2023-02-02T07:14:25.689Z,6.38
2023-02-02T07:16:53.258Z,6.44
2023-02-02T07:19:20.870Z,6.41
2023-02-02T07:21:49.932Z,6.38
2023-02-02T07:24:17.701Z,6.39
2023-02-02T07:26:45.446Z,6.36
2023-02-02T07:29:13.997Z,6.54
2023-02-02T07:31:41.800Z,6.34
2023-02-02T07:34:09.402Z,6.36
2023-02-02T07:36:37.103Z,6.56
2023-02-02T07:39:07.610Z,6.61
2023-02-02T07:41:36.412Z,6.52
2023-02-02T07:44:04.176Z,6.60
2023-02-02T07:46:32.171Z,6.65
2023-02-02T07:48:59.818Z,6.42
2023-02-02T07:51:27.612Z,6.70
2023-02-02T07:53:58.384Z,6.63
2023-02-02T07:56:28.479Z,6.47
2023-02-02T07:58:57.408Z,6.47
2023-02-02T08:01:26.303Z,6.43
2023-02-02T08:03:54.535Z,6.53
2023-02-02T08:06:23.597Z,6.46
2023-02-02T08:08:53.137Z,6.38
2023-02-02T08:11:22.859Z,6.54
2023-02-02T08:13:52.946Z,6.51
2023-02-02T08:16:21.216Z,6.51
2023-02-02T08:18:49.117Z,6.58
2023-02-02T08:21:17.293Z,6.55
2023-02-02T08:23:45.624Z,6.67
2023-02-02T08:26:15.354Z,6.75
2023-02-02T08:28:44.290Z,6.51
2023-02-02T08:31:15.327Z,6.67
2023-02-02T08:33:43.543Z,6.74
2023-02-02T08:36:13.004Z,6.72
2023-02-02T08:38:40.619Z,6.75
2023-02-02T08:41:09.255Z,6.84
2023-02-02T08:43:37.274Z,6.72
2023-02-02T08:46:05.939Z,6.89
2023-02-02T08:48:36.249Z,6.83
2023-02-02T08:51:05.211Z,6.76
2023-02-02T08:53:33.542Z,6.83
2023-02-02T08:56:02.212Z,6.79
2023-02-02T08:58:30.049Z,6.93
2023-02-02T09:01:05.867Z,6.91
2023-02-02T09:03:35.425Z,6.82
2023-02-02T09:06:07.072Z,6.90
2023-02-02T09:08:34.797Z,6.90
2023-02-02T09:11:07.064Z,6.97
2023-02-02T09:13:34.784Z,6.90
2023-02-02T09:16:02.937Z,6.80
2023-02-02T09:18:30.997Z,6.94
2023-02-02T09:21:02.409Z,6.89
2023-02-02T09:23:31.125Z,7.00
2023-02-02T09:25:59.050Z,7.03
2023-02-02T09:28:26.684Z,6.99
2023-02-02T09:30:54.310Z,7.08
2023-02-02T09:33:21.944Z,7.09
2023-02-02T09:35:49.634Z,7.06
2023-02-02T09:38:18.552Z,7.30
2023-02-02T09:40:46.167Z,7.17
2023-02-02T09:43:28.166Z,7.13
2023-02-02T09:46:00.862Z,7.26
2023-02-02T09:48:31.099Z,7.25
2023-02-02T09:51:01.123Z,7.10
2023-02-02T09:53:53.179Z,7.19
2023-02-02T09:56:25.448Z,7.11
2023-02-02T09:58:54.886Z,7.19
2023-02-02T10:01:24.318Z,7.38
2023-02-02T10:04:01.200Z,7.21
2023-02-02T10:06:35.566Z,7.13
2023-02-02T10:09:14.350Z,7.32
2023-02-02T10:11:46.460Z,7.16
2023-02-02T10:14:19.554Z,7.25
2023-02-02T10:16:47.958Z,7.30
2023-02-02T10:19:15.978Z,7.49
2023-02-02T10:21:48.113Z,7.36
2023-02-02T10:24:19.449Z,7.34
2023-02-02T10:26:49.092Z,7.36
2023-02-02T10:29:18.717Z,7.31
2023-02-02T10:31:54.373Z,7.35
2023-02-02T10:34:25.153Z,7.58
2023-02-02T10:37:07.514Z,7.61
2023-02-02T10:39:45.883Z,7.35
2023-02-02T10:42:20.741Z,7.39
2023-02-02T10:44:51.687Z,7.36
2023-02-02T10:47:25.353Z,7.73
2023-02-02T10:49:59.505Z,7.48
2023-02-02T10:52:31.253Z,7.71
2023-02-02T10:55:04.441Z,7.68
2023-02-02T10:57:53.554Z,7.85
2023-02-02T11:00:24.124Z,7.72
2023-02-02T11:02:52.626Z,7.96
2023-02-02T11:05:40.259Z,8.02
2023-02-02T11:08:15.836Z,7.77
2023-02-02T11:10:46.111Z,7.74
2023-02-02T11:13:19.921Z,7.80
2023-02-02T11:15:47.567Z,7.74
2023-02-02T11:18:27.273Z,7.95
2023-02-02T11:20:55.222Z,7.85
2023-02-02T11:23:23.065Z,8.11
2023-02-02T11:26:00.800Z,8.16
2023-02-02T11:28:30.941Z,8.16
2023-02-02T11:30:59.016Z,8.15
2023-02-02T11:33:31.846Z,8.28
2023-02-02T11:36:00.991Z,7.99
2023-02-02T11:38:29.517Z,8.13
2023-02-02T11:41:02.343Z,8.00
2023-02-02T11:43:31.529Z,8.14
2023-02-02T11:46:02.989Z,8.05
2023-02-02T11:48:34.239Z,8.17
2023-02-02T11:51:02.677Z,8.04
2023-02-02T11:53:32.237Z,8.18
2023-02-02T11:56:03.674Z,8.31
2023-02-02T11:58:44.483Z,8.23
2023-02-02T12:01:24.490Z,8.41
2023-02-02T12:03:54.023Z,8.35
2023-02-02T12:06:22.988Z,8.37
2023-02-02T12:08:50.974Z,8.54
2023-02-02T12:11:30.374Z,8.74
2023-02-02T12:14:06.908Z,8.76
2023-02-02T12:16:43.566Z,8.88
2023-02-02T12:19:28.480Z,9.12
2023-02-02T12:22:02.369Z,9.14
2023-02-02T12:24:32.679Z,9.18
2023-02-02T12:27:12.423Z,9.19
2023-02-02T12:29:49.498Z,9.16
2023-02-02T12:32:27.532Z,9.24
2023-02-02T12:35:05.162Z,9.11
2023-02-02T12:37:43.868Z,9.06
2023-02-02T12:40:31.133Z,9.07
2023-02-02T12:43:11.784Z,9.02
2023-02-02T12:45:47.728Z,9.10
2023-02-02T12:48:24.567Z,9.14
2023-02-02T12:51:01.750Z,9.38
2023-02-02T12:53:39.538Z,9.36
2023-02-02T12:56:18.453Z,9.48
2023-02-02T12:58:54.405Z,9.49
2023-02-02T13:01:34.691Z,9.53
2023-02-02T13:04:12.360Z,9.58
2023-02-02T13:07:07.626Z,9.74
2023-02-02T13:09:41.235Z,9.52
2023-02-02T13:12:10.700Z,9.44
2023-02-02T13:14:42.595Z,9.30
2023-02-02T13:17:14.143Z,9.37
2023-02-02T13:19:43.511Z,9.24
2023-02-02T13:22:16.507Z,9.18
2023-02-02T13:24:46.918Z,9.24
2023-02-02T13:27:17.121Z,9.04
2023-02-02T13:29:49.731Z,8.85
2023-02-02T13:32:22.440Z,8.77
2023-02-02T13:34:52.343Z,8.97
2023-02-02T13:37:26.310Z,8.91
2023-02-02T13:39:57.373Z,8.88
2023-02-02T13:42:33.106Z,8.60
2023-02-02T13:45:04.736Z,8.99
2023-02-02T13:47:38.881Z,8.76
2023-02-02T13:50:12.154Z,8.73
2023-02-02T13:52:51.323Z,8.85
2023-02-02T13:55:45.702Z,8.84
2023-02-02T13:58:41.171Z,8.95
2023-02-02T14:01:12.157Z,8.66
2023-02-02T14:03:41.418Z,8.76
2023-02-02T14:06:12.379Z,8.69
2023-02-02T14:08:46.550Z,8.79
2023-02-02T14:11:19.935Z,8.86
2023-02-02T14:14:06.639Z,8.88
2023-02-02T14:16:48.147Z,8.81
2023-02-02T14:19:17.237Z,8.82
2023-02-02T14:22:06.246Z,8.89
2023-02-02T14:24:45.664Z,8.89
2023-02-02T14:27:58.064Z,8.85
2023-02-02T14:30:32.689Z,8.78
2023-02-02T14:33:23.276Z,8.87
2023-02-02T14:36:01.651Z,8.84
2023-02-02T14:38:45.941Z,8.74
2023-02-02T14:41:37.420Z,8.71
2023-02-02T14:44:05.021Z,8.61
2023-02-02T14:46:35.584Z,8.64
2023-02-02T14:49:16.884Z,8.58
2023-02-02T14:52:00.267Z,8.47
2023-02-02T14:54:37.440Z,8.40
2023-02-02T14:57:22.398Z,8.35
2023-02-02T14:59:50.889Z,8.40
2023-02-02T15:02:21.850Z,8.36
2023-02-02T15:04:51.184Z,8.26
2023-02-02T15:07:47.291Z,8.31
2023-02-02T15:10:57.487Z,8.03
2023-02-02T15:13:26.038Z,8.20
2023-02-02T15:16:08.350Z,8.20
2023-02-02T15:18:42.140Z,8.20
2023-02-02T15:21:15.506Z,8.33
2023-02-02T15:23:44.963Z,8.09
2023-02-02T15:26:16.564Z,8.29
2023-02-02T15:28:48.338Z,8.04
2023-02-02T15:31:20.474Z,8.13
2023-02-02T15:33:50.612Z,8.09
2023-02-02T15:36:23.780Z,8.02
2023-02-02T15:38:54.198Z,8.14
2023-02-02T15:41:24.932Z,7.87
2023-02-02T15:43:53.286Z,7.91
2023-02-02T15:46:24.452Z,8.05
2023-02-02T15:49:32.718Z,8.08
2023-02-02T15:52:10.109Z,8.03
2023-02-02T15:54:38.982Z,8.06
2023-02-02T15:57:23.740Z,8.03
2023-02-02T15:59:51.335Z,7.97
2023-02-02T16:02:24.096Z,7.93
2023-02-02T16:04:51.725Z,7.94
2023-02-02T16:07:23.071Z,7.86
2023-02-02T16:09:50.942Z,7.75
2023-02-02T16:12:20.429Z,7.87
2023-02-02T16:14:49.609Z,7.96
2023-02-02T16:17:21.737Z,8.01
2023-02-02T16:19:50.557Z,7.99
2023-02-02T16:22:23.870Z,7.92
2023-02-02T16:24:54.817Z,7.70
2023-02-02T16:27:24.628Z,7.70
2023-02-02T16:29:52.306Z,7.81
2023-02-02T16:32:38.875Z,7.74
2023-02-02T16:35:25.853Z,7.58
2023-02-02T16:38:12.932Z,7.69
2023-02-02T16:40:40.965Z,7.73
2023-02-02T16:43:17.927Z,7.68
2023-02-02T16:45:47.940Z,7.74
2023-02-02T16:48:30.723Z,7.32
2023-02-02T16:51:23.921Z,7.49
2023-02-02T16:53:59.149Z,7.56
2023-02-02T16:56:31.228Z,7.50
2023-02-02T16:59:00.505Z,7.47
2023-02-02T17:01:37.622Z,7.37
2023-02-02T17:04:06.763Z,7.38
2023-02-02T17:06:50.448Z,7.43
2023-02-02T17:09:36.405Z,7.44
2023-02-02T17:12:14.270Z,7.24
2023-02-02T17:14:53.100Z,7.48
2023-02-02T17:17:21.184Z,7.39
2023-02-02T17:19:48.826Z,7.48
2023-02-02T17:22:18.960Z,7.30
2023-02-02T17:24:49.761Z,7.37
2023-02-02T17:27:19.568Z,7.37
2023-02-02T17:29:47.391Z,7.38
2023-02-02T17:32:15.006Z,7.43
2023-02-02T17:34:42.695Z,7.41
2023-02-02T17:37:10.751Z,7.38
2023-02-02T17:39:38.395Z,7.35
2023-02-02T17:42:07.949Z,7.29
2023-02-02T17:44:35.708Z,7.38
2023-02-02T17:47:03.232Z,7.33
2023-02-02T17:49:30.818Z,7.21
2023-02-02T17:51:58.479Z,7.30
2023-02-02T17:54:26.357Z,7.20
2023-02-02T17:56:53.988Z,7.20
2023-02-02T17:59:22.991Z,7.23
2023-02-02T18:01:51.125Z,7.34
2023-02-02T18:04:18.995Z,7.01
2023-02-02T18:06:46.679Z,7.38
2023-02-02T18:09:14.378Z,7.31
2023-02-02T18:11:42.668Z,7.03
2023-02-02T18:14:10.721Z,7.19
2023-02-02T18:16:39.754Z,7.20
2023-02-02T18:19:07.351Z,7.17
2023-02-02T18:21:34.948Z,7.13
2023-02-02T18:24:02.590Z,7.04
2023-02-02T18:26:31.461Z,7.01
2023-02-02T18:28:59.968Z,7.11
2023-02-02T18:31:27.911Z,7.19
2023-02-02T18:33:57.095Z,7.12
2023-02-02T18:36:24.725Z,6.94
2023-02-02T18:38:53.781Z,6.96
2023-02-02T18:41:22.094Z,7.13
2023-02-02T18:43:52.648Z,7.09
2023-02-02T18:46:20.397Z,7.09
2023-02-02T18:48:48.156Z,7.13
2023-02-02T18:51:18.908Z,7.05
2023-02-02T18:53:47.501Z,7.01
2023-02-02T18:56:15.817Z,6.98
2023-02-02T18:58:43.414Z,7.10
2023-02-02T19:01:12.238Z,7.15
2023-02-02T19:03:40.854Z,6.98
2023-02-02T19:06:27.848Z,7.07
2023-02-02T19:08:56.759Z,7.04
2023-02-02T19:11:26.610Z,6.99
2023-02-02T19:13:54.643Z,6.96
2023-02-02T19:16:25.390Z,6.98
2023-02-02T19:18:56.818Z,6.97
2023-02-02T19:21:24.594Z,6.81
2023-02-02T19:23:52.171Z,6.91
2023-02-02T19:26:24.613Z,6.86
2023-02-02T19:28:52.770Z,6.99
2023-02-02T19:31:21.024Z,7.03
2023-02-02T19:33:50.271Z,6.91
2023-02-02T19:36:20.541Z,7.04
2023-02-02T19:38:49.456Z,6.80
2023-02-02T19:41:20.241Z,6.68
2023-02-02T19:43:50.132Z,6.74
2023-02-02T19:46:22.205Z,6.69
2023-02-02T19:48:52.499Z,6.68
2023-02-02T19:51:38.600Z,6.82
2023-02-02T19:54:12.924Z,6.83
2023-02-02T19:56:40.563Z,6.81
2023-02-02T19:59:14.372Z,6.73
2023-02-02T20:01:45.804Z,6.60
2023-02-02T20:04:14.483Z,6.67
2023-02-02T20:06:56.688Z,6.83
2023-02-02T20:09:28.584Z,6.61
2023-02-02T20:11:56.687Z,6.57
2023-02-02T20:14:32.786Z,6.71
2023-02-02T20:17:03.477Z,6.76
2023-02-02T20:19:35.217Z,6.85
2023-02-02T20:22:03.456Z,6.69
2023-02-02T20:24:36.481Z,6.86
2023-02-02T20:27:17.233Z,6.88
2023-02-02T20:29:47.726Z,6.79
2023-02-02T20:32:21.007Z,6.71
2023-02-02T20:34:49.711Z,6.87
2023-02-02T20:37:23.229Z,6.65
2023-02-02T20:39:54.189Z,6.76
2023-02-02T20:42:22.013Z,6.70
2023-02-02T20:44:51.029Z,6.79
2023-02-02T20:47:18.794Z,6.75
2023-02-02T20:49:46.602Z,6.82
2023-02-02T20:52:21.812Z,6.69
2023-02-02T20:54:49.678Z,6.94
2023-02-02T20:57:27.299Z,6.75
2023-02-02T20:59:57.728Z,6.80
2023-02-02T21:02:26.470Z,6.86
2023-02-02T21:04:55.005Z,6.84
2023-02-02T21:07:23.711Z,6.87
2023-02-02T21:09:51.862Z,6.88
2023-02-02T21:12:22.227Z,6.64
2023-02-02T21:14:49.804Z,6.64
2023-02-02T21:17:18.839Z,6.78
2023-02-02T21:19:46.606Z,6.69
2023-02-02T21:22:14.466Z,6.72
2023-02-02T21:24:42.610Z,6.84
2023-02-02T21:27:10.505Z,6.63
2023-02-02T21:29:38.480Z,6.78
2023-02-02T21:32:06.618Z,6.79
2023-02-02T21:34:37.654Z,6.83
2023-02-02T21:37:10.768Z,6.77
2023-02-02T21:39:38.674Z,6.71
2023-02-02T21:42:13.040Z,6.64
2023-02-02T21:44:42.218Z,6.56
2023-02-02T21:47:30.279Z,6.70
2023-02-02T21:50:05.444Z,6.71
2023-02-02T21:52:34.775Z,6.66
2023-02-02T21:55:22.823Z,6.69
2023-02-02T21:57:50.564Z,6.57
2023-02-02T22:00:24.834Z,6.69
2023-02-02T22:02:53.939Z,6.57
2023-02-02T22:05:25.659Z,6.62
2023-02-02T22:07:54.315Z,6.66
2023-02-02T22:10:37.119Z,6.53
2023-02-02T22:13:15.516Z,6.56
2023-02-02T22:15:45.883Z,6.42
2023-02-02T22:18:14.912Z,6.44
2023-02-02T22:20:47.027Z,6.56
2023-02-02T22:23:16.522Z,6.55
2023-02-02T22:25:45.581Z,6.49
2023-02-02T22:28:20.091Z,6.45
2023-02-02T22:30:47.913Z,6.43
2023-02-02T22:33:16.202Z,6.51
2023-02-02T22:35:46.100Z,6.50
2023-02-02T22:38:17.819Z,6.48
2023-02-02T22:40:45.528Z,6.55
2023-02-02T22:43:16.254Z,6.47
2023-02-02T22:45:44.506Z,6.43
2023-02-02T22:48:12.445Z,6.48
2023-02-02T22:50:40.376Z,6.49
2023-02-02T22:53:09.564Z,6.52
2023-02-02T22:55:37.627Z,6.56
2023-02-02T22:58:05.247Z,6.40
2023-02-02T23:00:33.581Z,6.48
2023-02-02T23:03:01.564Z,6.52
2023-02-02T23:05:29.357Z,6.48
2023-02-02T23:07:57.202Z,6.51
2023-02-02T23:10:29.518Z,6.51
2023-02-02T23:12:58.559Z,6.46
2023-02-02T23:15:26.596Z,6.36
2023-02-02T23:17:54.722Z,6.54
2023-02-02T23:20:22.653Z,6.55
2023-02-02T23:22:50.227Z,6.50
2023-02-02T23:25:18.660Z,6.55
2023-02-02T23:27:47.723Z,6.58
2023-02-02T23:30:16.070Z,6.59
2023-02-02T23:32:43.649Z,6.53
2023-02-02T23:35:11.349Z,6.51
2023-02-02T23:37:39.439Z,6.61
2023-02-02T23:40:08.231Z,6.40
2023-02-02T23:42:35.956Z,6.44
2023-02-02T23:45:05.619Z,6.53
2023-02-02T23:47:33.763Z,6.45
2023-02-02T23:50:04.334Z,6.42
2023-02-02T23:52:32.521Z,6.50
2023-02-02T23:55:00.964Z,6.53
2023-02-02T23:57:28.727Z,6.51
2023-02-02T23:59:56.371Z,6.68
